createdAt,value
2022-09-14T00:05:02.249Z,26.1
2022-09-14T00:10:21.030Z,26.1
2022-09-14T00:15:39.485Z,26.1
2022-09-14T00:20:57.969Z,26.1
2022-09-14T00:26:16.281Z,26.1
2022-09-14T00:31:34.950Z,26.1
2022-09-14T00:36:53.821Z,26.1
2022-09-14T00:42:12.065Z,26.1
2022-09-14T00:47:30.230Z,26.2
2022-09-14T00:52:48.712Z,26.2
2022-09-14T00:58:07.226Z,26.2
2022-09-14T01:03:25.757Z,26.2
2022-09-14T01:08:44.509Z,26.2
2022-09-14T01:14:02.832Z,26.2
2022-09-14T01:19:21.451Z,26.2
2022-09-14T01:24:39.377Z,26.2
2022-09-14T01:29:57.924Z,26.2
2022-09-14T01:35:16.454Z,26.2
2022-09-14T01:40:34.546Z,26.2
2022-09-14T01:45:52.831Z,26.2
2022-09-14T01:51:10.846Z,26.3
2022-09-14T01:56:29.336Z,26.3
2022-09-14T02:01:51.547Z,26.3
2022-09-14T02:07:10.545Z,26.3
2022-09-14T02:12:28.754Z,26.3
2022-09-14T02:17:47.529Z,26.3
2022-09-14T02:23:05.985Z,26.3
2022-09-14T02:28:24.204Z,26.3
2022-09-14T02:33:42.153Z,26.3
2022-09-14T02:39:00.222Z,26.3
2022-09-14T02:44:18.429Z,26.3
2022-09-14T02:49:36.939Z,26.3
2022-09-14T02:54:55.404Z,26.3
2022-09-14T03:00:13.617Z,26.3
2022-09-14T03:05:32.120Z,26.3
2022-09-14T03:10:50.594Z,26.3
2022-09-14T03:16:09.158Z,26.3
2022-09-14T03:21:27.347Z,26.3
2022-09-14T03:26:46.096Z,26.3
2022-09-14T03:32:04.296Z,26.3
2022-09-14T03:37:23.095Z,26.2
2022-09-14T03:42:41.562Z,26.2
2022-09-14T03:48:00.328Z,26.2
2022-09-14T03:53:19.110Z,26.2
2022-09-14T03:58:37.677Z,26.2
2022-09-14T04:03:55.881Z,26.2
2022-09-14T04:09:14.386Z,26.1
2022-09-14T04:14:32.571Z,26.1
2022-09-14T04:19:51.051Z,26.1
2022-09-14T04:25:09.746Z,26.1
2022-09-14T04:30:28.497Z,26.1
2022-09-14T04:35:46.705Z,26.1
2022-09-14T04:41:05.497Z,26.1
2022-09-14T04:46:23.650Z,26.1
2022-09-14T04:51:41.756Z,26.1
2022-09-14T04:57:00.001Z,25.7
2022-09-14T05:02:18.973Z,25.5
2022-09-14T05:07:37.442Z,25.4
2022-09-14T05:12:56.304Z,25.3
2022-09-14T05:18:14.483Z,25.2
2022-09-14T05:23:33.237Z,25.2
2022-09-14T05:28:51.806Z,25.2
2022-09-14T05:33:54.709Z,25.1
2022-09-14T05:39:13.454Z,25
2022-09-14T05:44:32.104Z,25
2022-09-14T05:49:50.816Z,25
2022-09-14T05:55:09.300Z,25.2
2022-09-14T06:00:28.028Z,25.3
2022-09-14T06:05:47.098Z,25.4
2022-09-14T06:11:05.451Z,25.3
2022-09-14T06:16:24.234Z,25.3
2022-09-14T06:21:42.472Z,25.3
2022-09-14T06:27:00.956Z,25.3
2022-09-14T06:32:19.484Z,25.3
2022-09-14T06:37:38.222Z,25.3
2022-09-14T06:42:56.991Z,25.4
2022-09-14T06:48:15.933Z,25.4
2022-09-14T06:53:34.667Z,25.4
2022-09-14T06:58:53.421Z,25.5
2022-09-14T07:04:11.940Z,25.5
2022-09-14T07:09:14.778Z,25.6
2022-09-14T07:14:33.253Z,25.6
2022-09-14T07:19:51.863Z,25.6
2022-09-14T07:25:10.095Z,25.7
2022-09-14T07:30:28.711Z,25.7
2022-09-14T07:35:47.146Z,25.7
2022-09-14T07:41:05.388Z,25.7
2022-09-14T07:46:23.822Z,25.7
2022-09-14T07:51:42.681Z,25.8
2022-09-14T07:57:00.859Z,25.8
2022-09-14T08:02:19.152Z,25.9
2022-09-14T08:07:37.635Z,25.9
2022-09-14T08:12:40.198Z,25.9
2022-09-14T08:17:58.678Z,25.9
2022-09-14T08:23:17.204Z,26
2022-09-14T08:28:36.281Z,26
2022-09-14T08:33:54.920Z,26
2022-09-14T08:39:13.723Z,26
2022-09-14T08:44:31.861Z,26
2022-09-14T08:49:49.746Z,26
2022-09-14T08:55:07.954Z,26
2022-09-14T09:00:25.814Z,26.1
2022-09-14T09:05:43.975Z,26.1
2022-09-14T09:11:02.187Z,26.1
2022-09-14T09:16:20.512Z,26.2
2022-09-14T09:21:38.716Z,26.2
2022-09-14T09:26:57.037Z,26.2
2022-09-14T09:32:15.985Z,26.2
2022-09-14T09:37:34.393Z,26.3
2022-09-14T09:42:52.702Z,26.3
2022-09-14T09:48:11.139Z,26.3
2022-09-14T09:53:29.336Z,26.3
2022-09-14T09:58:47.948Z,26.3
2022-09-14T10:04:06.156Z,26.3
2022-09-14T10:09:24.673Z,26.4
2022-09-14T10:14:43.127Z,26.4
2022-09-14T10:20:01.848Z,26.4
2022-09-14T10:25:20.335Z,26.4
2022-09-14T10:30:38.832Z,26.4
2022-09-14T10:35:57.124Z,26.5
2022-09-14T10:41:15.308Z,26.5
2022-09-14T10:46:34.145Z,26.5
2022-09-14T10:51:37.156Z,26.5
2022-09-14T10:56:55.625Z,26.5
2022-09-14T11:02:14.276Z,26.5
2022-09-14T11:07:33.091Z,26.5
2022-09-14T11:12:51.289Z,26.6
2022-09-14T11:18:09.793Z,26.6
2022-09-14T11:23:27.665Z,26.6
2022-09-14T11:28:46.142Z,26.6
2022-09-14T11:34:04.438Z,26.5
2022-09-14T11:39:22.902Z,26.5
2022-09-14T11:44:41.357Z,26.4
2022-09-14T11:49:59.398Z,26.4
2022-09-14T11:55:17.605Z,26.4
2022-09-14T12:00:36.352Z,26.4
2022-09-14T12:05:54.982Z,26.4
2022-09-14T12:11:13.499Z,26.4
2022-09-14T12:16:35.196Z,26.4
2022-09-14T12:21:53.589Z,26.4
2022-09-14T12:27:12.387Z,26.3
2022-09-14T12:32:31.145Z,26.3
2022-09-14T12:37:49.975Z,26.3
2022-09-14T12:42:52.515Z,26.3
2022-09-14T12:48:10.557Z,26.3
2022-09-14T12:53:29.498Z,26.3
2022-09-14T12:58:47.935Z,26.3
2022-09-14T13:04:06.150Z,26.3
2022-09-14T13:09:25.121Z,26.3
2022-09-14T13:14:43.644Z,26.3
2022-09-14T13:20:02.121Z,26.3
2022-09-14T13:25:05.012Z,26.3
2022-09-14T13:30:23.250Z,26.3
2022-09-14T13:35:41.443Z,26.3
2022-09-14T13:40:59.879Z,26.3
2022-09-14T13:46:21.180Z,26.3
2022-09-14T13:51:39.465Z,26.3
2022-09-14T13:56:58.009Z,26.3
2022-09-14T14:02:16.829Z,26.3
2022-09-14T14:07:35.028Z,26.3
2022-09-14T14:12:53.550Z,26.3
2022-09-14T14:18:12.057Z,26.3
2022-09-14T14:23:30.538Z,26.4
2022-09-14T14:28:49.623Z,26.3
2022-09-14T14:34:08.513Z,26.3
2022-09-14T14:39:27.006Z,26.3
2022-09-14T14:44:45.457Z,26.4
2022-09-14T14:50:04.134Z,26.4
2022-09-14T14:55:22.874Z,26.4
2022-09-14T15:00:41.656Z,26.4
2022-09-14T15:06:00.048Z,26.4
2022-09-14T15:11:18.541Z,26.4
2022-09-14T15:16:37.492Z,26.4
2022-09-14T15:22:01.947Z,26.4
2022-09-14T15:27:20.247Z,26.4
2022-09-14T15:32:38.247Z,26.5
2022-09-14T15:37:56.770Z,26.4
2022-09-14T15:43:14.947Z,26.4
2022-09-14T15:48:33.440Z,26.4
2022-09-14T15:53:51.907Z,26.4
2022-09-14T15:59:10.668Z,26.4
2022-09-14T16:04:29.230Z,26.4
2022-09-14T16:09:47.215Z,26.4
2022-09-14T16:15:05.413Z,26.4
2022-09-14T16:20:24.274Z,26.4
2022-09-14T16:25:42.895Z,26.4
2022-09-14T16:31:01.657Z,26.4
2022-09-14T16:36:19.902Z,26.4
2022-09-14T16:41:38.193Z,26.4
2022-09-14T16:46:56.942Z,26.4
2022-09-14T16:52:15.574Z,26.4
2022-09-14T16:57:34.337Z,26.4
2022-09-14T17:02:53.109Z,26.4
2022-09-14T17:08:11.610Z,26.4
2022-09-14T17:13:30.415Z,26.4
2022-09-14T17:18:48.890Z,26.4
2022-09-14T17:24:07.391Z,26.4
2022-09-14T17:29:25.562Z,26.4
2022-09-14T17:34:44.048Z,26.4
2022-09-14T17:40:02.383Z,26.4
2022-09-14T17:45:20.680Z,26.4
2022-09-14T17:50:39.144Z,26.3
2022-09-14T17:55:57.454Z,26.3
2022-09-14T18:01:16.325Z,26.3
2022-09-14T18:06:34.505Z,26.2
2022-09-14T18:11:53.096Z,26.2
2022-09-14T18:17:11.808Z,26.2
2022-09-14T18:22:30.266Z,26.1
2022-09-14T18:27:48.714Z,26.1
2022-09-14T18:33:06.859Z,26.1
2022-09-14T18:38:25.620Z,26.1
2022-09-14T18:43:44.503Z,26.1
2022-09-14T18:49:03.936Z,26.1
2022-09-14T18:54:27.998Z,26.1
2022-09-14T18:59:46.295Z,26.1
2022-09-14T19:05:04.734Z,26.1
2022-09-14T19:10:11.954Z,26.1
2022-09-14T19:15:33.046Z,26.1
2022-09-14T19:21:07.171Z,26.1
2022-09-14T19:26:25.150Z,26.1
2022-09-14T19:31:44.028Z,26.1
2022-09-14T19:37:02.782Z,26
2022-09-14T19:42:24.829Z,26.1
2022-09-14T19:47:43.126Z,26.1
2022-09-14T19:53:05.099Z,26.1
2022-09-14T19:58:23.855Z,26
2022-09-14T20:03:42.155Z,26
2022-09-14T20:09:01.097Z,26
2022-09-14T20:14:19.455Z,26
2022-09-14T20:19:38.176Z,26
2022-09-14T20:24:56.426Z,26.1
2022-09-14T20:30:14.910Z,26.2
2022-09-14T20:35:33.503Z,26.1
2022-09-14T20:40:52.301Z,26.2
2022-09-14T20:46:11.212Z,26.2
2022-09-14T20:51:29.670Z,26.2
2022-09-14T20:56:47.902Z,26.2
2022-09-14T21:02:06.263Z,26.2
2022-09-14T21:07:24.841Z,26.2
2022-09-14T21:12:43.570Z,26.2
2022-09-14T21:18:02.313Z,26.2
2022-09-14T21:23:20.917Z,26.2
2022-09-14T21:28:39.372Z,26.2
2022-09-14T21:33:57.840Z,26.2
2022-09-14T21:39:16.152Z,26.2
2022-09-14T21:44:34.947Z,26.2
2022-09-14T21:49:53.702Z,26.2
2022-09-14T21:55:12.202Z,26.3
2022-09-14T22:00:31.559Z,26.3
2022-09-14T22:05:56.650Z,26.3
2022-09-14T22:11:15.053Z,26.3
2022-09-14T22:16:36.571Z,26.3
2022-09-14T22:21:55.054Z,26.3
2022-09-14T22:27:13.575Z,26.3
2022-09-14T22:32:32.302Z,26.3
2022-09-14T22:37:50.793Z,26.3
2022-09-14T22:43:09.467Z,26.3
2022-09-14T22:48:27.626Z,26.3
2022-09-14T22:53:46.389Z,26.3
2022-09-14T22:59:05.001Z,26.3
2022-09-14T23:04:23.821Z,26.3
2022-09-14T23:09:42.302Z,26.3
2022-09-14T23:15:01.089Z,26.3
2022-09-14T23:20:19.731Z,26.4
2022-09-14T23:25:38.481Z,26.4
2022-09-14T23:30:57.425Z,26.4
2022-09-14T23:36:16.029Z,26.4
2022-09-14T23:41:34.809Z,26.4
2022-09-14T23:46:53.606Z,26.4
2022-09-14T23:52:12.056Z,26.4
2022-09-14T23:57:30.540Z,26.4
